createdAt,value
2018-09-30T00:01:59.597Z,11.40
2018-09-30T00:04:29.104Z,11.40
2018-09-30T00:06:58.807Z,11.40
2018-09-30T00:09:29.920Z,11.40
2018-09-30T00:12:01.392Z,11.40
2018-09-30T00:14:31.092Z,11.40
2018-09-30T00:17:01.327Z,11.40
2018-09-30T00:19:30.894Z,11.40
2018-09-30T00:22:00.584Z,11.40
2018-09-30T00:24:35.772Z,11.40
2018-09-30T00:27:10.532Z,11.30
2018-09-30T00:29:39.962Z,11.30
2018-09-30T00:32:09.440Z,11.30
2018-09-30T00:34:39.082Z,11.30
2018-09-30T00:37:08.538Z,11.30
2018-09-30T00:39:37.978Z,11.30
2018-09-30T00:42:07.810Z,11.30
2018-09-30T00:44:37.221Z,11.30
2018-09-30T00:47:06.782Z,11.30
2018-09-30T00:49:36.200Z,11.30
2018-09-30T00:52:06.071Z,11.30
2018-09-30T00:54:35.510Z,11.30
2018-09-30T00:57:05.900Z,11.30
2018-09-30T00:59:36.083Z,11.30
2018-09-30T01:02:05.843Z,11.30
2018-09-30T01:04:35.362Z,11.30
2018-09-30T01:07:04.873Z,11.20
2018-09-30T01:09:34.320Z,11.20
2018-09-30T01:12:03.794Z,11.20
2018-09-30T01:14:33.241Z,11.20
2018-09-30T01:17:02.682Z,11.20
2018-09-30T01:19:32.091Z,11.20
2018-09-30T01:22:01.572Z,11.20
2018-09-30T01:24:31.029Z,11.20
2018-09-30T01:27:00.470Z,11.20
2018-09-30T01:29:29.895Z,11.20
2018-09-30T01:31:59.397Z,11.20
2018-09-30T01:34:28.816Z,11.20
2018-09-30T01:36:58.214Z,11.20
2018-09-30T01:39:27.855Z,11.20
2018-09-30T01:41:57.717Z,11.20
2018-09-30T01:44:28.115Z,11.20
2018-09-30T01:46:58.416Z,11.10
2018-09-30T01:49:28.045Z,11.10
2018-09-30T01:52:08.455Z,11.20
2018-09-30T01:54:37.879Z,11.20
2018-09-30T01:57:07.368Z,11.20
2018-09-30T01:59:36.836Z,11.20
2018-09-30T02:02:06.391Z,11.20
2018-09-30T02:04:35.798Z,11.20
2018-09-30T02:07:05.240Z,11.20
2018-09-30T02:09:34.732Z,11.20
2018-09-30T02:12:04.257Z,11.20
2018-09-30T02:14:33.725Z,11.20
2018-09-30T02:17:03.318Z,11.20
2018-09-30T02:19:33.007Z,11.10
2018-09-30T02:22:02.439Z,11.10
2018-09-30T02:24:31.866Z,11.10
2018-09-30T02:27:01.560Z,11.10
2018-09-30T02:29:31.016Z,11.10
2018-09-30T02:32:00.742Z,11.10
2018-09-30T02:34:30.424Z,11.10
2018-09-30T02:37:00.766Z,11.10
2018-09-30T02:39:30.323Z,11.10
2018-09-30T02:41:59.832Z,11.10
2018-09-30T02:44:29.921Z,11.10
2018-09-30T02:46:59.414Z,11.10
2018-09-30T02:49:28.990Z,11.10
2018-09-30T02:52:00.402Z,11.00
2018-09-30T02:54:29.993Z,11.10
2018-09-30T02:56:59.673Z,11.00
2018-09-30T02:59:29.337Z,11.00
2018-09-30T03:01:58.850Z,11.00
2018-09-30T03:04:28.305Z,11.00
2018-09-30T03:07:03.445Z,11.00
2018-09-30T03:09:32.820Z,11.00
2018-09-30T03:12:03.064Z,11.00
2018-09-30T03:14:32.673Z,11.00
2018-09-30T03:17:02.236Z,11.00
2018-09-30T03:19:31.742Z,11.00
2018-09-30T03:22:01.279Z,11.00
2018-09-30T03:24:30.751Z,10.90
2018-09-30T03:27:00.229Z,10.90
2018-09-30T03:29:29.748Z,10.90
2018-09-30T03:31:59.232Z,10.90
2018-09-30T03:34:28.698Z,10.90
2018-09-30T03:36:58.118Z,10.90
2018-09-30T03:39:28.171Z,10.90
2018-09-30T03:41:58.228Z,10.90
2018-09-30T03:44:27.836Z,10.90
2018-09-30T03:46:57.387Z,10.80
2018-09-30T03:49:27.119Z,10.80
2018-09-30T03:51:56.610Z,10.80
2018-09-30T03:54:26.051Z,10.80
2018-09-30T03:56:55.468Z,10.80
2018-09-30T03:59:24.898Z,10.80
2018-09-30T04:01:54.376Z,10.80
2018-09-30T04:04:24.055Z,10.80
2018-09-30T04:06:53.466Z,10.80
2018-09-30T04:09:22.907Z,10.70
2018-09-30T04:11:52.670Z,10.70
2018-09-30T04:14:23.042Z,10.70
2018-09-30T04:16:52.545Z,10.70
2018-09-30T04:19:22.221Z,10.70
2018-09-30T04:21:51.663Z,10.80
2018-09-30T04:24:21.192Z,10.60
2018-09-30T04:26:50.690Z,10.70
2018-09-30T04:29:20.174Z,10.70
2018-09-30T04:31:50.366Z,10.70
2018-09-30T04:34:19.953Z,10.70
2018-09-30T04:36:49.350Z,10.70
2018-09-30T04:39:19.068Z,10.70
2018-09-30T04:41:48.526Z,10.70
2018-09-30T04:44:18.657Z,10.70
2018-09-30T04:46:48.181Z,10.60
2018-09-30T04:49:17.609Z,10.60
2018-09-30T04:51:47.882Z,10.60
2018-09-30T04:54:17.774Z,10.60
2018-09-30T04:56:47.247Z,10.60
2018-09-30T04:59:16.713Z,10.60
2018-09-30T05:01:46.416Z,10.60
2018-09-30T05:04:15.846Z,10.60
2018-09-30T05:06:45.247Z,10.50
2018-09-30T05:09:14.933Z,10.50
2018-09-30T05:11:44.373Z,10.40
2018-09-30T05:14:14.644Z,10.50
2018-09-30T05:16:44.400Z,10.50
2018-09-30T05:19:14.053Z,10.50
2018-09-30T05:21:43.547Z,10.60
2018-09-30T05:24:13.295Z,10.60
2018-09-30T05:26:42.745Z,10.60
2018-09-30T05:29:12.276Z,10.60
2018-09-30T05:31:42.009Z,10.60
2018-09-30T05:34:11.420Z,10.60
2018-09-30T05:39:14.388Z,10.60
2018-09-30T05:41:45.211Z,10.60
2018-09-30T05:44:14.669Z,10.60
2018-09-30T05:46:44.921Z,10.60
2018-09-30T05:49:15.270Z,10.60
2018-09-30T05:51:44.710Z,10.70
2018-09-30T05:54:14.193Z,10.70
2018-09-30T05:56:44.371Z,10.60
2018-09-30T05:59:13.782Z,10.70
2018-09-30T06:01:45.216Z,10.70
2018-09-30T06:04:14.754Z,10.70
2018-09-30T06:06:44.468Z,10.70
2018-09-30T06:09:15.525Z,10.60
2018-09-30T06:11:46.771Z,10.70
2018-09-30T06:14:16.722Z,10.70
2018-09-30T06:16:47.241Z,10.80
2018-09-30T06:19:17.014Z,10.80
2018-09-30T06:21:47.180Z,10.80
2018-09-30T06:24:16.919Z,10.80
2018-09-30T06:26:46.596Z,10.80
2018-09-30T06:29:16.038Z,10.80
2018-09-30T06:31:45.743Z,10.80
2018-09-30T06:34:17.622Z,10.80
2018-09-30T06:36:47.529Z,10.80
2018-09-30T06:39:17.171Z,10.80
2018-09-30T06:41:46.661Z,10.80
2018-09-30T06:44:16.133Z,10.80
2018-09-30T06:46:45.568Z,10.90
2018-09-30T06:49:15.125Z,10.90
2018-09-30T06:51:44.565Z,10.90
2018-09-30T06:54:14.438Z,10.90
2018-09-30T06:56:43.925Z,10.90
2018-09-30T06:59:13.390Z,10.90
2018-09-30T07:01:43.204Z,10.90
2018-09-30T07:04:12.709Z,10.90
2018-09-30T07:06:42.241Z,10.90
2018-09-30T07:09:11.670Z,10.90
2018-09-30T07:11:41.158Z,11.00
2018-09-30T07:14:10.618Z,10.90
2018-09-30T07:16:40.147Z,11.00
2018-09-30T07:19:09.587Z,10.90
2018-09-30T07:21:39.437Z,11.00
2018-09-30T07:24:08.909Z,11.00
2018-09-30T07:26:38.500Z,11.00
2018-09-30T07:29:08.080Z,11.10
2018-09-30T07:31:37.501Z,11.10
2018-09-30T07:34:07.375Z,11.10
2018-09-30T07:36:36.818Z,11.20
2018-09-30T07:39:08.368Z,11.30
2018-09-30T07:41:37.929Z,11.30
2018-09-30T07:44:07.486Z,11.40
2018-09-30T07:46:37.225Z,11.40
2018-09-30T07:49:06.678Z,11.40
2018-09-30T07:51:36.170Z,11.40
2018-09-30T07:54:05.604Z,11.40
2018-09-30T07:56:35.083Z,11.40
2018-09-30T07:59:04.712Z,11.50
2018-09-30T08:01:34.272Z,11.50
2018-09-30T08:04:03.759Z,11.50
2018-09-30T08:06:33.255Z,11.60
2018-09-30T08:09:02.817Z,11.60
2018-09-30T08:11:32.262Z,11.70
2018-09-30T08:14:01.787Z,11.70
2018-09-30T08:16:31.249Z,11.80
2018-09-30T08:19:01.057Z,11.90
2018-09-30T08:21:30.565Z,11.90
2018-09-30T08:24:00.090Z,12.00
2018-09-30T08:26:29.554Z,12.00
2018-09-30T08:28:59.078Z,12.10
2018-09-30T08:31:28.707Z,12.10
2018-09-30T08:33:58.301Z,12.20
2018-09-30T08:36:28.096Z,12.20
2018-09-30T08:38:57.599Z,12.20
2018-09-30T08:41:27.135Z,12.10
2018-09-30T08:43:56.621Z,12.20
2018-09-30T08:46:26.075Z,12.20
2018-09-30T08:48:55.642Z,12.20
2018-09-30T08:51:25.076Z,12.20
2018-09-30T08:53:54.625Z,12.30
2018-09-30T08:56:24.084Z,12.40
2018-09-30T08:58:53.503Z,12.50
2018-09-30T09:01:22.979Z,12.60
2018-09-30T09:03:53.527Z,12.80
2018-09-30T09:06:22.977Z,12.80
2018-09-30T09:08:52.475Z,12.90
2018-09-30T09:11:22.037Z,13.00
2018-09-30T09:13:51.519Z,13.00
2018-09-30T09:16:20.950Z,13.20
2018-09-30T09:18:50.527Z,13.30
2018-09-30T09:21:19.986Z,13.40
2018-09-30T09:23:49.415Z,13.40
2018-09-30T09:26:18.853Z,13.40
2018-09-30T09:28:48.621Z,13.40
2018-09-30T09:31:19.306Z,13.40
2018-09-30T09:33:48.792Z,13.40
2018-09-30T09:36:18.459Z,13.50
2018-09-30T09:38:47.927Z,13.50
2018-09-30T09:41:17.332Z,13.60
2018-09-30T09:43:46.918Z,13.50
2018-09-30T09:46:16.334Z,13.60
2018-09-30T09:48:45.959Z,13.60
2018-09-30T09:51:16.797Z,13.70
2018-09-30T09:53:46.242Z,13.70
2018-09-30T09:56:15.705Z,13.70
2018-09-30T09:58:45.187Z,13.70
2018-09-30T10:01:14.596Z,13.70
2018-09-30T10:03:43.994Z,13.80
2018-09-30T10:06:14.419Z,13.80
2018-09-30T10:08:45.250Z,13.80
2018-09-30T10:11:15.680Z,13.90
2018-09-30T10:13:45.163Z,13.90
2018-09-30T10:16:14.619Z,14.00
2018-09-30T10:18:44.074Z,14.00
2018-09-30T10:21:13.616Z,14.00
2018-09-30T10:23:43.185Z,14.10
2018-09-30T10:26:12.720Z,14.20
2018-09-30T10:28:42.385Z,14.20
2018-09-30T10:31:12.212Z,14.10
2018-09-30T10:33:42.936Z,14.10
2018-09-30T10:36:12.529Z,14.00
2018-09-30T10:38:42.923Z,13.90
2018-09-30T10:41:12.406Z,13.90
2018-09-30T10:43:42.076Z,13.80
2018-09-30T10:46:11.499Z,13.80
2018-09-30T10:48:40.918Z,13.80
2018-09-30T10:51:10.374Z,13.70
2018-09-30T10:53:39.805Z,13.70
2018-09-30T10:56:09.234Z,13.70
2018-09-30T10:58:38.754Z,13.80
2018-09-30T11:01:08.305Z,13.70
2018-09-30T11:03:37.858Z,13.70
2018-09-30T11:06:07.709Z,13.80
2018-09-30T11:08:37.516Z,13.70
2018-09-30T11:11:06.970Z,13.70
2018-09-30T11:13:36.488Z,13.80
2018-09-30T11:16:06.141Z,13.90
2018-09-30T11:18:36.099Z,13.90
2018-09-30T11:21:05.708Z,13.90
2018-09-30T11:23:35.362Z,13.90
2018-09-30T11:26:04.860Z,14.00
2018-09-30T11:28:34.456Z,13.90
2018-09-30T11:31:05.167Z,14.00
2018-09-30T11:33:34.789Z,14.00
2018-09-30T11:36:04.248Z,14.00
2018-09-30T11:38:38.600Z,13.90
2018-09-30T11:41:08.177Z,14.00
2018-09-30T11:43:37.966Z,14.00
2018-09-30T11:46:07.473Z,14.00
2018-09-30T11:48:36.967Z,14.00
2018-09-30T11:53:33.507Z,14.00
2018-09-30T11:56:02.944Z,14.00
2018-09-30T11:58:32.451Z,14.10
2018-09-30T12:01:01.936Z,14.10
2018-09-30T12:03:31.432Z,14.10
2018-09-30T12:06:00.878Z,14.10
2018-09-30T12:08:30.296Z,14.00
2018-09-30T12:10:59.725Z,14.10
2018-09-30T12:13:29.240Z,14.00
2018-09-30T12:15:58.671Z,14.00
2018-09-30T12:18:28.532Z,14.00
2018-09-30T12:21:00.104Z,14.00
2018-09-30T12:23:29.618Z,14.10
2018-09-30T12:26:00.200Z,14.10
2018-09-30T12:28:30.582Z,14.10
2018-09-30T12:31:00.162Z,14.20
2018-09-30T12:33:29.664Z,14.30
2018-09-30T12:35:59.117Z,14.30
2018-09-30T12:38:28.573Z,14.30
2018-09-30T12:40:58.656Z,14.30
2018-09-30T12:43:28.362Z,14.30
2018-09-30T12:45:57.974Z,14.20
2018-09-30T12:48:27.385Z,14.10
2018-09-30T12:50:57.064Z,14.10
2018-09-30T12:53:27.027Z,14.10
2018-09-30T12:55:56.747Z,14.00
2018-09-30T12:58:26.187Z,14.00
2018-09-30T13:00:55.652Z,14.10
2018-09-30T13:03:25.250Z,14.00
2018-09-30T13:05:54.804Z,14.10
2018-09-30T13:08:24.225Z,14.10
2018-09-30T13:10:54.215Z,14.20
2018-09-30T13:13:23.732Z,14.20
2018-09-30T13:15:53.223Z,14.20
2018-09-30T13:18:22.687Z,14.20
2018-09-30T13:20:52.218Z,14.40
2018-09-30T13:23:21.723Z,14.40
2018-09-30T13:25:51.246Z,14.60
2018-09-30T13:28:20.684Z,14.80
2018-09-30T13:30:50.199Z,14.80
2018-09-30T13:33:19.666Z,14.80
2018-09-30T13:35:49.401Z,14.90
2018-09-30T13:38:18.892Z,14.90
2018-09-30T13:40:48.367Z,15.00
2018-09-30T13:43:17.782Z,14.90
2018-09-30T13:45:47.247Z,15.10
2018-09-30T13:48:16.733Z,15.20
2018-09-30T13:50:46.318Z,15.30
2018-09-30T13:53:15.754Z,15.30
2018-09-30T13:55:45.167Z,15.20
2018-09-30T13:58:14.754Z,15.10
2018-09-30T14:00:44.200Z,15.10
2018-09-30T14:03:13.680Z,15.10
2018-09-30T14:05:43.458Z,15.10
2018-09-30T14:08:12.935Z,15.30
2018-09-30T14:10:42.356Z,15.40
2018-09-30T14:13:11.799Z,15.40
2018-09-30T14:15:42.058Z,15.30
2018-09-30T14:18:11.531Z,15.30
2018-09-30T14:20:40.986Z,15.60
2018-09-30T14:23:10.426Z,15.70
2018-09-30T14:25:39.961Z,15.90
2018-09-30T14:28:09.400Z,15.90
2018-09-30T14:30:38.848Z,15.90
2018-09-30T14:33:08.336Z,15.80
2018-09-30T14:35:37.875Z,15.60
2018-09-30T14:38:07.492Z,15.50
2018-09-30T14:40:36.949Z,15.40
2018-09-30T14:43:06.517Z,15.50
2018-09-30T14:45:36.012Z,15.50
2018-09-30T14:48:05.824Z,15.60
2018-09-30T14:50:35.363Z,15.70
2018-09-30T14:53:04.796Z,15.60
2018-09-30T14:55:34.392Z,15.60
2018-09-30T14:58:04.180Z,15.50
2018-09-30T15:00:33.611Z,15.40
2018-09-30T15:03:03.068Z,15.20
2018-09-30T15:05:32.792Z,15.00
2018-09-30T15:08:02.273Z,14.90
2018-09-30T15:10:31.756Z,14.80
2018-09-30T15:13:01.221Z,14.70
2018-09-30T15:15:30.718Z,14.50
2018-09-30T15:18:00.126Z,14.40
2018-09-30T15:20:29.664Z,14.40
2018-09-30T15:22:59.106Z,14.40
2018-09-30T15:25:28.570Z,14.40
2018-09-30T15:27:59.088Z,14.40
2018-09-30T15:30:28.606Z,14.20
2018-09-30T15:32:58.210Z,14.20
2018-09-30T15:35:28.496Z,14.10
2018-09-30T15:37:58.474Z,14.00
2018-09-30T15:40:28.020Z,13.90
2018-09-30T15:42:57.495Z,13.90
2018-09-30T15:45:26.972Z,13.90
2018-09-30T15:47:56.441Z,13.80
2018-09-30T15:50:25.851Z,13.80
2018-09-30T15:52:55.324Z,13.80
2018-09-30T15:55:24.906Z,13.80
2018-09-30T15:57:54.332Z,13.70
2018-09-30T16:00:23.854Z,13.70
2018-09-30T16:02:53.388Z,13.60
2018-09-30T16:05:23.104Z,13.60
2018-09-30T16:07:52.618Z,13.50
2018-09-30T16:10:22.161Z,13.40
2018-09-30T16:12:52.046Z,13.40
2018-09-30T16:15:21.561Z,13.30
2018-09-30T16:17:51.089Z,13.30
2018-09-30T16:20:20.536Z,13.20
2018-09-30T16:22:50.076Z,13.10
2018-09-30T16:25:19.536Z,12.90
2018-09-30T16:27:49.019Z,12.90
2018-09-30T16:30:18.768Z,12.80
2018-09-30T16:32:48.283Z,12.80
2018-09-30T16:35:17.928Z,12.70
2018-09-30T16:37:47.336Z,12.50
2018-09-30T16:40:16.867Z,12.50
2018-09-30T16:42:46.272Z,12.40
2018-09-30T16:45:15.734Z,12.30
2018-09-30T16:47:45.186Z,12.30
2018-09-30T16:50:14.648Z,12.30
2018-09-30T16:52:44.163Z,12.20
2018-09-30T16:55:13.592Z,12.20
2018-09-30T16:57:43.058Z,12.10
2018-09-30T17:00:12.519Z,12.00
2018-09-30T17:02:42.094Z,12.00
2018-09-30T17:05:11.566Z,11.90
2018-09-30T17:07:41.355Z,11.90
2018-09-30T17:10:10.797Z,11.80
2018-09-30T17:12:41.083Z,11.80
2018-09-30T17:15:10.640Z,11.60
2018-09-30T17:17:40.230Z,11.60
2018-09-30T17:20:09.763Z,11.50
2018-09-30T17:22:39.650Z,11.40
2018-09-30T17:25:09.488Z,11.40
2018-09-30T17:27:39.420Z,11.40
2018-09-30T17:30:08.853Z,11.30
2018-09-30T17:32:38.344Z,11.30
2018-09-30T17:35:07.862Z,11.20
2018-09-30T17:37:37.436Z,11.20
2018-09-30T17:40:06.962Z,11.20
2018-09-30T17:42:36.478Z,11.10
2018-09-30T17:45:06.689Z,11.10
2018-09-30T17:47:36.287Z,11.10
2018-09-30T17:50:06.032Z,11.10
2018-09-30T17:52:35.749Z,11.10
2018-09-30T17:55:06.140Z,11.10
2018-09-30T17:57:35.656Z,11.10
2018-09-30T18:00:06.272Z,11.10
2018-09-30T18:02:35.877Z,11.00
2018-09-30T18:05:06.156Z,11.00
2018-09-30T18:07:35.638Z,11.00
2018-09-30T18:10:05.209Z,11.00
2018-09-30T18:12:34.774Z,11.00
2018-09-30T18:15:04.316Z,10.90
2018-09-30T18:17:34.163Z,10.90
2018-09-30T18:20:04.797Z,10.90
2018-09-30T18:22:34.805Z,10.90
2018-09-30T18:25:04.367Z,10.90
2018-09-30T18:27:33.907Z,10.80
2018-09-30T18:30:03.594Z,10.80
2018-09-30T18:32:33.317Z,10.80
2018-09-30T18:35:02.911Z,10.80
2018-09-30T18:37:32.787Z,10.80
2018-09-30T18:40:02.285Z,10.70
2018-09-30T18:42:31.811Z,10.70
2018-09-30T18:45:01.483Z,10.70
2018-09-30T18:47:31.167Z,10.70
2018-09-30T18:50:00.799Z,10.70
2018-09-30T18:52:31.172Z,10.60
2018-09-30T18:55:00.631Z,10.60
2018-09-30T18:57:30.127Z,10.60
2018-09-30T18:59:59.578Z,10.60
2018-09-30T19:02:29.004Z,10.60
2018-09-30T19:04:58.443Z,10.60
2018-09-30T19:07:28.121Z,10.60
2018-09-30T19:09:57.699Z,10.60
2018-09-30T19:12:27.239Z,10.60
2018-09-30T19:14:56.777Z,10.60
2018-09-30T19:17:26.272Z,10.50
2018-09-30T19:19:55.706Z,10.50
2018-09-30T19:22:25.464Z,10.50
2018-09-30T19:24:55.074Z,10.50
2018-09-30T19:27:25.426Z,10.50
2018-09-30T19:29:55.067Z,10.40
2018-09-30T19:32:25.032Z,10.40
2018-09-30T19:34:54.615Z,10.40
2018-09-30T19:37:24.124Z,10.40
2018-09-30T19:39:53.876Z,10.40
2018-09-30T19:42:23.412Z,10.40
2018-09-30T19:44:52.961Z,10.30
2018-09-30T19:47:22.452Z,10.30
2018-09-30T19:49:52.013Z,10.30
2018-09-30T19:52:21.542Z,10.20
2018-09-30T19:54:51.006Z,10.20
2018-09-30T19:57:20.502Z,10.20
2018-09-30T19:59:50.125Z,10.10
2018-09-30T20:02:19.585Z,10.10
2018-09-30T20:04:49.334Z,10.10
2018-09-30T20:07:19.862Z,10.10
2018-09-30T20:09:49.564Z,10.10
2018-09-30T20:12:19.094Z,10.00
2018-09-30T20:14:48.645Z,10.00
2018-09-30T20:17:18.727Z,10.00
2018-09-30T20:19:49.051Z,9.90
2018-09-30T20:22:18.494Z,9.90
2018-09-30T20:24:48.532Z,9.80
2018-09-30T20:27:19.253Z,9.80
2018-09-30T20:29:50.053Z,9.70
2018-09-30T20:32:19.576Z,9.70
2018-09-30T20:34:49.162Z,9.60
2018-09-30T20:37:18.655Z,9.60
2018-09-30T20:39:48.163Z,9.60
2018-09-30T20:42:18.098Z,9.60
2018-09-30T20:44:47.513Z,9.60
2018-09-30T20:47:17.343Z,9.50
2018-09-30T20:49:46.765Z,9.50
2018-09-30T20:52:16.212Z,9.50
2018-09-30T20:54:45.643Z,9.40
2018-09-30T20:57:15.257Z,9.40
2018-09-30T20:59:44.629Z,9.40
2018-09-30T21:02:14.037Z,9.40
2018-09-30T21:04:43.737Z,9.30
2018-09-30T21:07:13.304Z,9.30
2018-09-30T21:09:43.318Z,9.30
2018-09-30T21:12:12.956Z,9.30
2018-09-30T21:14:42.555Z,9.30
2018-09-30T21:17:12.017Z,9.20
2018-09-30T21:19:41.484Z,9.20
2018-09-30T21:22:10.890Z,9.20
2018-09-30T21:24:40.373Z,9.20
2018-09-30T21:27:09.810Z,9.10
2018-09-30T21:29:39.235Z,9.10
2018-09-30T21:32:09.018Z,9.10
2018-09-30T21:34:38.601Z,9.10
2018-09-30T21:37:08.042Z,9.00
2018-09-30T21:39:37.528Z,9.00
2018-09-30T21:42:07.011Z,9.00
2018-09-30T21:44:36.431Z,9.00
2018-09-30T21:47:06.341Z,8.90
2018-09-30T21:49:35.761Z,8.90
2018-09-30T21:52:05.198Z,8.90
2018-09-30T21:54:34.654Z,8.80
2018-09-30T21:57:04.102Z,8.80
2018-09-30T21:59:33.566Z,8.80
2018-09-30T22:02:03.023Z,8.80
2018-09-30T22:04:32.591Z,8.80
2018-09-30T22:07:02.275Z,8.70
2018-09-30T22:09:31.703Z,8.70
2018-09-30T22:12:01.128Z,8.60
2018-09-30T22:14:30.526Z,8.60
2018-09-30T22:16:59.955Z,8.50
2018-09-30T22:19:29.410Z,8.50
2018-09-30T22:21:58.825Z,8.40
2018-09-30T22:24:28.229Z,8.40
2018-09-30T22:26:57.760Z,8.40
2018-09-30T22:29:27.159Z,8.40
2018-09-30T22:31:56.557Z,8.40
2018-09-30T22:34:26.064Z,8.40
2018-09-30T22:36:55.523Z,8.30
2018-09-30T22:39:25.008Z,8.30
2018-09-30T22:41:54.418Z,8.30
2018-09-30T22:44:23.875Z,8.30
2018-09-30T22:46:53.331Z,8.20
2018-09-30T22:49:22.814Z,8.20
2018-09-30T22:51:52.233Z,8.20
2018-09-30T22:54:21.641Z,8.20
2018-09-30T22:56:51.150Z,8.10
2018-09-30T22:59:20.599Z,8.10
2018-09-30T23:01:50.620Z,8.10
2018-09-30T23:04:20.018Z,8.10
2018-09-30T23:06:49.775Z,8.10
2018-09-30T23:09:19.179Z,8.10
2018-09-30T23:11:48.612Z,8.10
2018-09-30T23:14:18.390Z,8.10
2018-09-30T23:16:47.880Z,8.00
2018-09-30T23:19:17.325Z,8.00
2018-09-30T23:21:46.777Z,8.00
2018-09-30T23:24:16.226Z,8.00
2018-09-30T23:26:45.704Z,8.00
2018-09-30T23:29:15.380Z,8.00
2018-09-30T23:31:44.835Z,8.00
2018-09-30T23:34:14.296Z,8.00
2018-09-30T23:36:43.751Z,8.00
2018-09-30T23:39:13.761Z,8.10
2018-09-30T23:41:44.391Z,8.10
2018-09-30T23:44:15.151Z,8.10
2018-09-30T23:46:44.580Z,8.10
2018-09-30T23:49:14.006Z,8.10
2018-09-30T23:51:43.836Z,8.10
2018-09-30T23:54:13.976Z,8.10
2018-09-30T23:56:43.516Z,8.10
2018-09-30T23:59:13.131Z,8.10
